Time;durP1;ratioP1;P1;durP2;ratioP2;P2;SDS_P1;SDS_P2;PMS_P1;PMS_P2;Temp;Humidity;BMP_temperature;BMP_pressure;BME280_temperature;BME280_humidity;BME280_pressure;Samples;Min_cycle;Max_cycle;Signal;HPM_P1;HPM_P2
2023/05/05 00:02:19;;;;;;;11.57;6.27;;;13.80;1.00;;;;;;4986946;28;20833;-86
2023/05/05 00:04:47;;;;;;;8.60;6.10;;;13.70;1.00;;;;;;4958211;28;20226;-87
2023/05/05 00:07:14;;;;;;;8.27;6.83;;;13.70;1.00;;;;;;4966171;28;20786;-89
2023/05/05 00:09:42;;;;;;;7.17;6.47;;;13.60;1.00;;;;;;4958323;28;20280;-88
2023/05/05 00:12:09;;;;;;;9.83;6.47;;;13.50;1.00;;;;;;4991113;28;20193;-84
2023/05/05 00:14:36;;;;;;;7.53;6.70;;;13.50;1.00;;;;;;4993054;28;20756;-87
2023/05/05 00:17:04;;;;;;;7.67;6.50;;;13.50;1.00;;;;;;4976452;28;20208;-87
2023/05/05 00:19:32;;;;;;;8.43;7.07;;;13.50;1.00;;;;;;4991458;28;20210;-86
2023/05/05 00:22:00;;;;;;;11.10;6.70;;;13.40;1.00;;;;;;4954538;28;20197;-88
2023/05/05 00:24:26;;;;;;;8.50;6.80;;;13.40;1.00;;;;;;4991386;28;20227;-89
2023/05/05 00:26:53;;;;;;;9.33;7.37;;;13.40;1.00;;;;;;4955587;28;20263;-87
2023/05/05 00:29:22;;;;;;;9.20;6.50;;;13.40;1.00;;;;;;4975173;28;20204;-87
2023/05/05 00:31:52;;;;;;;10.90;6.60;;;13.40;1.00;;;;;;4983214;28;20185;-86
2023/05/05 00:34:19;;;;;;;7.40;6.60;;;13.50;1.00;;;;;;4990131;28;20205;-88
2023/05/05 00:36:48;;;;;;;13.73;7.63;;;13.50;1.00;;;;;;4971811;28;20658;-86
2023/05/05 00:39:16;;;;;;;8.73;6.80;;;13.50;1.00;;;;;;4964784;28;20806;-86
2023/05/05 00:41:44;;;;;;;7.80;6.73;;;13.50;1.00;;;;;;4967754;28;20789;-87
2023/05/05 00:44:11;;;;;;;10.20;7.20;;;13.50;1.00;;;;;;4965572;28;20578;-89
2023/05/05 00:46:44;;;;;;;8.07;6.73;;;13.50;1.00;;;;;;4986999;28;20194;-87
2023/05/05 00:49:11;;;;;;;10.07;6.40;;;13.60;1.00;;;;;;4963976;28;20583;-87
2023/05/05 00:51:38;;;;;;;9.00;6.70;;;13.60;1.00;;;;;;4958993;28;20233;-90
2023/05/05 00:54:06;;;;;;;9.37;6.13;;;13.60;1.00;;;;;;4991541;28;20550;-89
2023/05/05 00:56:35;;;;;;;8.43;6.87;;;13.60;1.00;;;;;;4986619;28;20206;-87
2023/05/05 00:59:03;;;;;;;11.43;6.80;;;13.60;1.00;;;;;;4986953;28;20213;-87
2023/05/05 01:01:30;;;;;;;8.40;6.83;;;13.60;1.00;;;;;;4966437;23;20648;-60
2023/05/05 01:03:57;;;;;;;14.80;6.73;;;13.50;1.00;;;;;;4944205;28;20230;-60
2023/05/05 01:06:52;;;;;;;8.13;6.50;;;13.40;1.00;;;;;;4952122;28;20186;-61
2023/05/05 01:09:49;;;;;;;13.57;6.60;;;13.40;1.00;;;;;;4965856;28;20549;-61
2023/05/05 01:13:01;;;;;;;10.13;6.77;;;13.40;1.00;;;;;;4949089;28;20203;-60
2023/05/05 01:15:33;;;;;;;8.83;7.00;;;13.50;1.00;;;;;;4969976;28;20575;-59
2023/05/05 01:18:13;;;;;;;7.07;6.30;;;13.40;1.00;;;;;;4950180;29;20203;-62
2023/05/05 01:20:46;;;;;;;11.73;8.07;;;13.50;1.00;;;;;;4949417;28;20210;-62
2023/05/05 01:23:33;;;;;;;9.03;7.13;;;13.50;1.00;;;;;;4968677;28;20199;-61
2023/05/05 01:26:03;;;;;;;8.30;6.93;;;13.40;1.00;;;;;;4949370;28;20222;-61
2023/05/05 01:28:46;;;;;;;11.03;7.27;;;13.40;1.00;;;;;;4963665;28;20274;-61
2023/05/05 01:31:50;;;;;;;8.20;7.40;;;13.40;1.00;;;;;;4964153;28;20191;-61
2023/05/05 01:34:23;;;;;;;9.73;6.80;;;13.30;1.00;;;;;;4959857;28;20199;-62
2023/05/05 01:36:57;;;;;;;11.47;7.63;;;13.30;1.00;;;;;;4960712;28;20681;-61
2023/05/05 01:39:30;;;;;;;11.13;7.13;;;13.10;1.00;;;;;;4968638;28;20712;-62
2023/05/05 01:42:01;;;;;;;9.30;7.50;;;12.90;1.00;;;;;;4968590;28;20198;-60
2023/05/05 01:44:29;;;;;;;12.83;7.27;;;12.90;1.00;;;;;;4952393;28;20225;-60
2023/05/05 01:46:59;;;;;;;7.90;7.13;;;12.90;1.00;;;;;;4955718;28;20199;-60
2023/05/05 01:49:27;;;;;;;9.83;7.60;;;12.80;1.00;;;;;;4952320;28;20245;-61
2023/05/05 01:51:56;;;;;;;10.43;7.53;;;12.90;1.00;;;;;;4944465;28;20202;-61
2023/05/05 01:54:25;;;;;;;10.30;7.40;;;12.90;1.00;;;;;;4969438;28;20194;-61
2023/05/05 01:56:56;;;;;;;9.50;7.27;;;12.90;1.00;;;;;;4952082;28;20202;-62
2023/05/05 01:59:25;;;;;;;7.90;7.03;;;12.90;1.00;;;;;;4945508;28;20203;-60
2023/05/05 02:01:55;;;;;;;11.73;7.73;;;12.90;1.00;;;;;;4947064;28;20698;-60
2023/05/05 02:04:23;;;;;;;9.30;7.67;;;12.90;1.00;;;;;;4924554;28;20215;-61
2023/05/05 02:06:52;;;;;;;10.10;7.73;;;12.80;1.00;;;;;;4960897;28;20282;-62
2023/05/05 02:09:20;;;;;;;10.00;7.63;;;12.70;1.00;;;;;;4954525;28;20758;-62
2023/05/05 02:11:48;;;;;;;8.60;7.23;;;12.80;1.00;;;;;;4961606;28;20194;-60
2023/05/05 02:14:17;;;;;;;11.00;7.20;;;12.90;1.00;;;;;;4939141;28;20206;-59
2023/05/05 02:16:45;;;;;;;7.47;6.77;;;12.90;1.00;;;;;;4949463;28;20706;-64
2023/05/05 02:19:13;;;;;;;8.63;7.23;;;13.00;1.00;;;;;;4938595;29;20215;-65
2023/05/05 02:21:41;;;;;;;7.90;7.10;;;13.10;1.00;;;;;;4937758;28;20204;-64
2023/05/05 02:24:08;;;;;;;8.23;7.30;;;13.20;1.00;;;;;;4949556;28;20250;-64
2023/05/05 02:26:39;;;;;;;8.83;7.80;;;13.20;1.00;;;;;;4952143;28;20393;-64
2023/05/05 02:29:16;;;;;;;8.57;7.50;;;13.20;1.00;;;;;;4946506;28;20357;-64
2023/05/05 02:31:47;;;;;;;9.97;7.70;;;13.10;1.00;;;;;;4939369;28;20249;-64
2023/05/05 02:34:25;;;;;;;10.97;6.80;;;13.00;1.00;;;;;;4960262;28;20212;-65
2023/05/05 02:36:59;;;;;;;8.70;7.80;;;12.90;1.00;;;;;;4945565;28;20581;-66
2023/05/05 02:39:34;;;;;;;10.47;8.27;;;12.90;1.00;;;;;;4943019;28;20678;-64
2023/05/05 02:42:08;;;;;;;12.47;9.57;;;12.70;1.00;;;;;;4939311;28;20610;-66
2023/05/05 02:44:40;;;;;;;12.37;10.07;;;12.50;1.00;;;;;;4949307;28;20952;-59
2023/05/05 02:47:08;;;;;;;9.70;8.80;;;12.60;1.00;;;;;;4948159;28;20783;-61
2023/05/05 02:49:36;;;;;;;10.73;8.70;;;12.70;1.00;;;;;;4938157;28;20673;-60
2023/05/05 02:52:03;;;;;;;13.63;9.40;;;12.50;1.00;;;;;;4939455;28;20207;-60
2023/05/05 02:54:33;;;;;;;9.80;8.80;;;12.40;1.00;;;;;;4914135;28;20228;-60
2023/05/05 02:57:07;;;;;;;10.73;9.20;;;12.60;1.00;;;;;;4939053;29;20203;-59
2023/05/05 02:59:48;;;;;;;10.33;9.23;;;12.70;1.00;;;;;;4932390;29;20604;-61
2023/05/05 03:02:38;;;;;;;10.40;8.50;;;12.80;1.00;;;;;;4940987;28;20293;-61
2023/05/05 03:05:12;;;;;;;12.40;8.83;;;12.90;1.00;;;;;;4945571;28;20633;-61
2023/05/05 03:08:08;;;;;;;10.50;8.70;;;12.70;1.00;;;;;;4947389;28;20823;-59
2023/05/05 03:10:46;;;;;;;10.27;8.93;;;12.70;1.00;;;;;;4908987;29;20286;-61
2023/05/05 03:13:17;;;;;;;13.70;9.47;;;12.70;1.00;;;;;;4925939;29;20195;-62
2023/05/05 03:15:48;;;;;;;13.67;10.30;;;12.70;1.00;;;;;;4941767;28;20250;-62
2023/05/05 03:18:21;;;;;;;12.70;9.50;;;12.70;1.00;;;;;;4918615;29;20284;-61
2023/05/05 03:20:55;;;;;;;9.57;8.57;;;12.80;1.00;;;;;;4916804;28;20610;-63
2023/05/05 03:23:22;;;;;;;10.33;9.00;;;12.90;1.00;;;;;;4932468;29;20811;-62
2023/05/05 03:25:55;;;;;;;10.57;8.47;;;13.10;1.00;;;;;;4931700;28;20225;-62
2023/05/05 03:28:30;;;;;;;10.93;9.03;;;13.00;1.00;;;;;;4948587;29;20242;-62
2023/05/05 03:31:01;;;;;;;8.73;7.67;;;13.10;1.00;;;;;;4931126;29;20203;-63
2023/05/05 03:33:30;;;;;;;10.03;8.53;;;13.20;1.00;;;;;;4938606;29;20336;-62
2023/05/05 03:35:59;;;;;;;10.23;8.53;;;13.20;1.00;;;;;;4944320;28;20203;-63
2023/05/05 03:38:26;;;;;;;12.93;8.90;;;13.20;1.00;;;;;;4948025;28;20241;-62
2023/05/05 03:40:54;;;;;;;11.97;8.90;;;13.20;1.00;;;;;;4964256;28;20203;-64
2023/05/05 03:43:24;;;;;;;10.47;8.40;;;13.30;1.00;;;;;;4927266;28;20199;-60
2023/05/05 03:45:51;;;;;;;11.10;9.17;;;13.30;1.00;;;;;;4957262;28;20266;-60
2023/05/05 03:48:18;;;;;;;11.57;8.43;;;13.50;1.00;;;;;;4940506;29;20195;-62
2023/05/05 03:50:47;;;;;;;12.87;9.03;;;13.50;1.00;;;;;;4946775;28;20188;-61
2023/05/05 03:53:16;;;;;;;11.87;8.93;;;13.50;1.00;;;;;;4938715;28;20626;-60
2023/05/05 03:55:43;;;;;;;10.53;8.23;;;13.40;1.00;;;;;;4932342;28;20226;-61
2023/05/05 03:58:13;;;;;;;10.93;9.33;;;13.40;1.00;;;;;;4945859;28;20289;-61
2023/05/05 04:00:40;;;;;;;10.77;8.57;;;13.20;1.00;;;;;;4938796;28;20741;-61
2023/05/05 04:03:08;;;;;;;12.67;9.53;;;13.10;1.00;;;;;;4937974;28;20219;-61
2023/05/05 04:05:35;;;;;;;12.27;8.40;;;13.10;1.00;;;;;;4942253;28;20223;-64
2023/05/05 04:08:03;;;;;;;16.60;9.47;;;13.10;1.00;;;;;;4939071;28;20515;-61
2023/05/05 04:10:31;;;;;;;10.97;8.40;;;13.20;1.00;;;;;;4926494;29;20236;-61
2023/05/05 04:12:58;;;;;;;11.53;8.43;;;13.20;1.00;;;;;;4949952;28;20203;-59
2023/05/05 04:15:26;;;;;;;10.90;8.30;;;13.30;1.00;;;;;;4955992;28;20209;-59
2023/05/05 04:17:53;;;;;;;12.43;9.30;;;13.40;1.00;;;;;;4919792;29;20334;-61
2023/05/05 04:20:20;;;;;;;10.23;8.77;;;13.50;1.00;;;;;;4921745;29;20230;-60
2023/05/05 04:22:47;;;;;;;10.07;8.97;;;13.60;1.00;;;;;;4937139;29;20206;-61
2023/05/05 04:25:17;;;;;;;12.50;9.03;;;13.60;1.00;;;;;;4932911;29;20379;-61
2023/05/05 04:27:46;;;;;;;9.43;8.10;;;13.70;1.00;;;;;;4947820;28;20430;-62
2023/05/05 04:30:14;;;;;;;14.87;10.30;;;13.80;1.00;;;;;;4950478;28;20214;-61
2023/05/05 04:32:41;;;;;;;12.17;9.30;;;14.10;1.00;;;;;;4921297;29;20204;-61
2023/05/05 04:35:09;;;;;;;17.57;14.03;;;14.50;1.00;;;;;;4931261;29;20906;-62
2023/05/05 04:37:36;;;;;;;12.90;10.37;;;14.80;1.00;;;;;;4922753;28;20196;-62
2023/05/05 04:40:04;;;;;;;16.13;12.80;;;15.00;1.00;;;;;;4945753;28;20248;-62
2023/05/05 04:42:33;;;;;;;15.50;11.40;;;15.10;1.00;;;;;;4951413;29;20203;-62
2023/05/05 04:45:01;;;;;;;11.93;10.53;;;15.10;1.00;;;;;;4937431;28;20735;-62
2023/05/05 04:47:29;;;;;;;12.38;9.80;;;15.20;1.00;;;;;;4934287;28;20195;-62
2023/05/05 04:49:56;;;;;;;15.30;12.93;;;15.40;1.00;;;;;;4942092;28;20199;-62
2023/05/05 04:52:22;;;;;;;20.35;15.52;;;15.60;1.00;;;;;;4943923;28;20187;-63
2023/05/05 04:54:50;;;;;;;18.57;13.90;;;15.90;1.00;;;;;;4948035;28;20250;-63
2023/05/05 04:57:17;;;;;;;17.10;11.20;;;16.10;1.00;;;;;;4931867;29;20254;-62
2023/05/05 04:59:44;;;;;;;19.17;13.10;;;16.30;1.00;;;;;;4952779;29;20663;-62
2023/05/05 05:02:11;;;;;;;20.48;15.13;;;16.40;1.00;;;;;;4933848;29;20249;-61
2023/05/05 05:04:39;;;;;;;25.27;18.40;;;16.50;1.00;;;;;;4940252;29;20187;-62
2023/05/05 05:07:06;;;;;;;15.70;13.32;;;16.50;1.00;;;;;;4940872;29;20238;-62
2023/05/05 05:09:33;;;;;;;17.52;15.50;;;16.60;1.00;;;;;;4952823;29;20242;-61
2023/05/05 05:12:03;;;;;;;20.20;16.77;;;16.60;1.00;;;;;;4935980;29;20199;-61
2023/05/05 05:14:36;;;;;;;16.52;13.43;;;16.70;1.00;;;;;;4951483;29;20683;-62
2023/05/05 05:17:03;;;;;;;11.30;9.15;;;16.80;1.00;;;;;;4950205;28;20203;-61
2023/05/05 05:19:31;;;;;;;15.13;10.55;;;16.90;1.00;;;;;;4931906;29;20203;-62
2023/05/05 05:21:58;;;;;;;17.13;11.00;;;16.90;1.00;;;;;;4910006;29;20221;-62
2023/05/05 05:24:26;;;;;;;14.52;12.20;;;17.00;1.00;;;;;;4934016;29;20293;-62
2023/05/05 05:26:54;;;;;;;13.88;11.20;;;17.10;1.00;;;;;;4934801;28;20270;-63
2023/05/05 05:29:21;;;;;;;19.65;11.27;;;17.20;1.00;;;;;;4944976;29;20219;-64
2023/05/05 05:31:49;;;;;;;14.02;10.90;;;17.40;1.00;;;;;;4940949;29;20195;-63
2023/05/05 05:34:16;;;;;;;16.20;11.07;;;17.50;1.00;;;;;;4919890;29;20210;-63
2023/05/05 05:36:44;;;;;;;13.80;10.98;;;17.40;1.00;;;;;;4932219;28;20191;-65
2023/05/05 05:39:11;;;;;;;13.82;11.27;;;17.40;1.00;;;;;;4943627;28;20203;-63
2023/05/05 05:41:38;;;;;;;18.77;11.70;;;17.40;1.00;;;;;;4931333;28;20207;-61
2023/05/05 05:44:06;;;;;;;16.40;12.15;;;17.40;1.00;;;;;;4941696;28;20294;-62
2023/05/05 05:46:33;;;;;;;17.63;11.88;;;17.40;1.00;;;;;;4929473;29;20239;-63
2023/05/05 05:49:00;;;;;;;13.35;12.00;;;17.50;1.00;;;;;;4930868;28;20215;-62
2023/05/05 05:51:27;;;;;;;15.73;11.48;;;17.60;1.00;;;;;;4943957;28;20950;-62
2023/05/05 05:53:55;;;;;;;15.98;13.25;;;17.80;1.00;;;;;;4944396;28;24721;-63
2023/05/05 05:56:24;;;;;;;17.50;12.27;;;17.80;1.00;;;;;;4942986;28;20266;-63
2023/05/05 05:58:51;;;;;;;13.70;11.25;;;17.90;1.00;;;;;;4908858;29;20210;-62
2023/05/05 06:01:19;;;;;;;12.93;10.88;;;18.00;1.00;;;;;;4930823;28;20231;-62
2023/05/05 06:03:46;;;;;;;17.08;13.65;;;18.10;1.00;;;;;;4949841;28;20248;-63
2023/05/05 06:06:14;;;;;;;18.73;13.10;;;18.20;1.00;;;;;;4924675;28;20235;-61
2023/05/05 06:08:41;;;;;;;17.10;12.60;;;18.40;1.00;;;;;;4943619;28;21821;-61
2023/05/05 06:11:09;;;;;;;17.95;12.23;;;18.40;1.00;;;;;;4947956;28;20207;-61
2023/05/05 06:13:36;;;;;;;13.65;11.68;;;18.90;1.00;;;;;;4927960;29;20226;-61
2023/05/05 06:16:05;;;;;;;12.57;10.80;;;18.90;1.00;;;;;;4940854;28;20572;-61
2023/05/05 06:18:32;;;;;;;16.88;12.88;;;18.90;1.00;;;;;;4945417;29;20298;-62
2023/05/05 06:20:59;;;;;;;15.88;11.63;;;18.70;1.00;;;;;;4932655;29;20663;-62
2023/05/05 06:23:27;;;;;;;14.52;12.10;;;18.80;1.00;;;;;;4930879;28;20203;-62
2023/05/05 06:25:59;;;;;;;12.10;10.68;;;19.00;1.00;;;;;;4933264;29;20695;-62
2023/05/05 06:28:26;;;;;;;16.38;11.10;;;19.40;1.00;;;;;;4950894;29;20199;-60
2023/05/05 06:30:53;;;;;;;11.85;8.85;;;21.10;1.00;;;;;;4951109;29;20607;-60
2023/05/05 06:33:20;;;;;;;10.25;9.25;;;23.00;1.00;;;;;;4941315;29;20198;-62
2023/05/05 06:35:48;;;;;;;11.60;9.52;;;25.00;1.00;;;;;;4944740;29;20227;-60
2023/05/05 06:38:15;;;;;;;11.20;9.38;;;26.00;1.00;;;;;;4936246;29;20205;-60
2023/05/05 06:40:42;;;;;;;10.23;8.43;;;26.70;1.00;;;;;;4942085;29;20239;-60
2023/05/05 06:43:09;;;;;;;14.23;12.07;;;26.30;1.00;;;;;;4937026;28;20221;-59
2023/05/05 06:45:41;;;;;;;15.80;11.00;;;26.10;1.00;;;;;;4940175;28;20258;-60
2023/05/05 06:48:09;;;;;;;14.57;11.52;;;26.80;1.00;;;;;;4935841;29;20196;-60
2023/05/05 06:50:36;;;;;;;12.93;10.70;;;27.50;1.00;;;;;;4937379;29;20672;-59
2023/05/05 06:53:03;;;;;;;9.98;8.45;;;28.60;1.00;;;;;;4939927;29;20562;-60
2023/05/05 06:55:30;;;;;;;11.57;8.85;;;28.00;1.00;;;;;;4955917;28;20203;-60
2023/05/05 06:57:57;;;;;;;11.18;8.77;;;28.20;1.00;;;;;;4954762;28;20670;-60
2023/05/05 07:00:24;;;;;;;14.23;10.10;;;28.60;1.00;;;;;;4943378;28;20628;-60
2023/05/05 07:02:51;;;;;;;10.85;9.10;;;28.00;1.00;;;;;;4950553;28;20281;-60
2023/05/05 07:05:18;;;;;;;11.45;8.98;;;27.90;1.00;;;;;;4959116;28;20601;-60
2023/05/05 07:07:55;;;;;;;13.25;8.90;;;28.60;1.00;;;;;;4935540;29;20293;-59
2023/05/05 07:10:23;;;;;;;15.05;10.18;;;28.70;1.00;;;;;;4944772;28;20265;-59
2023/05/05 07:12:51;;;;;;;13.48;9.90;;;28.10;1.00;;;;;;4944110;28;20205;-60
2023/05/05 07:15:18;;;;;;;10.00;8.80;;;27.80;1.00;;;;;;4955001;28;20191;-59
2023/05/05 07:17:55;;;;;;;14.75;9.30;;;27.40;1.00;;;;;;4936460;29;20207;-59
2023/05/05 07:20:22;;;;;;;9.90;8.88;;;28.50;1.00;;;;;;4954518;28;20246;-59
2023/05/05 07:22:50;;;;;;;11.40;9.80;;;28.60;1.00;;;;;;4940197;29;20559;-59
2023/05/05 07:25:17;;;;;;;13.93;9.02;;;28.80;1.00;;;;;;4942900;28;20203;-59
2023/05/05 07:27:44;;;;;;;10.45;8.05;;;30.60;1.00;;;;;;4947777;28;20190;-59
2023/05/05 07:30:11;;;;;;;10.40;7.95;;;32.00;1.00;;;;;;4951498;28;20226;-61
2023/05/05 07:32:44;;;;;;;9.48;7.55;;;32.40;1.00;;;;;;4950120;28;20298;-59
2023/05/05 07:35:11;;;;;;;8.85;7.88;;;32.80;1.00;;;;;;4926580;29;20203;-60
2023/05/05 07:37:38;;;;;;;8.30;7.35;;;32.70;1.00;;;;;;4942792;28;20739;-59
2023/05/05 07:40:06;;;;;;;8.68;6.90;;;32.40;1.00;;;;;;4946387;28;20199;-59
2023/05/05 07:42:34;;;;;;;8.88;6.82;;;31.80;1.00;;;;;;4949938;29;20207;-60
2023/05/05 07:45:01;;;;;;;8.18;6.13;;;30.60;1.00;;;;;;4944709;29;20277;-59
2023/05/05 07:47:28;;;;;;;7.30;6.13;;;31.00;1.00;;;;;;4942162;29;20270;-59
2023/05/05 07:49:55;;;;;;;9.02;6.18;;;32.00;1.00;;;;;;4921756;29;20689;-59
2023/05/05 07:52:22;;;;;;;8.00;5.93;;;32.40;1.00;;;;;;4948032;29;20195;-59
2023/05/05 07:55:09;;;;;;;6.15;5.55;;;34.60;1.00;;;;;;4935604;29;20718;-58
2023/05/05 07:57:36;;;;;;;7.05;5.93;;;34.20;1.00;;;;;;4932103;29;20195;-62
2023/05/05 08:00:04;;;;;;;6.97;5.78;;;32.90;1.00;;;;;;4935399;29;20270;-59
2023/05/05 08:02:37;;;;;;;6.78;6.05;;;32.30;1.00;;;;;;4944531;29;20285;-61
2023/05/05 08:05:05;;;;;;;5.90;5.38;;;32.50;1.00;;;;;;4941762;29;20206;-60
2023/05/05 08:07:35;;;;;;;6.82;5.97;;;32.80;1.00;;;;;;4944989;29;20571;-59
2023/05/05 08:10:02;;;;;;;9.13;5.68;;;32.40;1.00;;;;;;4947964;29;20765;-58
2023/05/05 08:12:29;;;;;;;6.05;5.45;;;31.80;1.00;;;;;;4945870;28;20195;-59
2023/05/05 08:14:56;;;;;;;6.13;5.47;;;30.70;1.00;;;;;;4953199;29;20568;-60
2023/05/05 08:17:25;;;;;;;5.80;5.30;;;30.80;1.00;;;;;;4952915;29;20599;-61
2023/05/05 08:19:53;;;;;;;6.28;5.68;;;31.00;1.00;;;;;;4935654;29;20202;-61
2023/05/05 08:22:21;;;;;;;6.10;5.50;;;31.60;1.00;;;;;;4949892;29;20207;-62
2023/05/05 08:24:48;;;;;;;5.88;5.00;;;31.90;1.00;;;;;;4952303;28;20290;-59
2023/05/05 08:27:15;;;;;;;5.07;4.57;;;31.90;1.00;;;;;;4953198;29;20269;-59
2023/05/05 08:29:41;;;;;;;6.53;5.03;;;32.40;1.00;;;;;;4952037;28;20261;-59
2023/05/05 08:32:08;;;;;;;5.82;5.22;;;32.50;1.00;;;;;;4952785;28;20198;-60
2023/05/05 08:34:35;;;;;;;7.43;5.50;;;31.40;1.00;;;;;;4948675;28;20206;-60
2023/05/05 08:37:02;;;;;;;6.97;6.28;;;30.40;1.00;;;;;;4948065;28;20213;-62
2023/05/05 08:39:29;;;;;;;6.60;6.00;;;30.60;1.00;;;;;;4959862;28;20199;-62
2023/05/05 08:41:56;;;;;;;7.20;6.10;;;30.10;1.00;;;;;;4952320;29;20286;-62
2023/05/05 08:44:25;;;;;;;8.02;5.78;;;30.70;1.00;;;;;;4939103;29;20779;-62
2023/05/05 08:46:53;;;;;;;7.45;5.97;;;30.00;1.00;;;;;;4941603;29;20251;-62
2023/05/05 08:49:21;;;;;;;8.60;6.53;;;30.80;1.00;;;;;;4956834;28;20205;-62
2023/05/05 08:51:51;;;;;;;8.65;6.45;;;30.00;1.00;;;;;;4955658;28;20882;-62
2023/05/05 08:54:20;;;;;;;6.93;5.85;;;29.30;1.00;;;;;;4944187;28;20205;-62
2023/05/05 08:56:49;;;;;;;7.45;6.38;;;30.20;1.00;;;;;;4953597;28;20281;-62
2023/05/05 08:59:22;;;;;;;11.20;5.95;;;29.60;1.00;;;;;;4940062;28;20199;-62
2023/05/05 09:01:50;;;;;;;6.93;5.65;;;29.80;1.00;;;;;;4948914;28;20246;-60
2023/05/05 09:04:18;;;;;;;7.15;5.82;;;31.60;1.00;;;;;;4955950;28;20221;-60
2023/05/05 09:06:45;;;;;;;6.28;5.72;;;32.30;1.00;;;;;;4956455;28;20282;-60
2023/05/05 09:09:12;;;;;;;7.20;6.50;;;31.50;1.00;;;;;;4939616;29;20204;-60
2023/05/05 09:11:41;;;;;;;6.32;5.72;;;31.20;1.00;;;;;;4945139;29;20755;-60
2023/05/05 09:14:08;;;;;;;8.40;6.68;;;32.00;1.00;;;;;;4954365;28;20260;-60
2023/05/05 09:16:38;;;;;;;7.15;6.45;;;32.20;1.00;;;;;;4942854;28;20192;-60
2023/05/05 09:19:06;;;;;;;6.55;5.85;;;34.10;1.00;;;;;;4937447;28;20211;-60
2023/05/05 09:21:33;;;;;;;6.60;6.03;;;35.60;1.00;;;;;;4945802;28;20201;-61
2023/05/05 09:24:07;;;;;;;9.25;7.70;;;34.50;1.00;;;;;;4929293;28;20291;-60
2023/05/05 09:26:43;;;;;;;7.50;6.18;;;33.40;1.00;;;;;;4942057;28;20328;-60
2023/05/05 09:29:20;;;;;;;6.97;6.18;;;33.10;1.00;;;;;;4952536;28;20206;-60
2023/05/05 09:32:09;;;;;;;7.20;6.47;;;33.30;1.00;;;;;;4909608;29;20196;-60
2023/05/05 09:34:36;;;;;;;6.65;5.85;;;30.60;1.00;;;;;;4929711;28;20222;-60
2023/05/05 09:37:04;;;;;;;11.50;8.45;;;33.30;1.00;;;;;;4950257;28;20281;-60
2023/05/05 09:39:31;;;;;;;6.30;5.55;;;35.00;1.00;;;;;;4935329;28;20293;-59
2023/05/05 09:41:58;;;;;;;10.52;5.75;;;34.00;1.00;;;;;;4951652;28;20597;-59
2023/05/05 09:44:39;;;;;;;8.30;5.57;;;34.50;1.00;;;;;;4932519;28;20290;-59
2023/05/05 09:47:06;;;;;;;8.30;5.72;;;31.30;1.00;;;;;;4935495;28;20305;-59
2023/05/05 09:49:58;;;;;;;6.78;4.57;;;32.70;1.00;;;;;;4944038;28;20656;-60
2023/05/05 09:52:25;;;;;;;5.20;4.70;;;33.80;1.00;;;;;;4953691;28;20218;-59
2023/05/05 09:54:56;;;;;;;6.88;4.53;;;34.90;1.00;;;;;;4946097;28;20188;-59
2023/05/05 09:57:28;;;;;;;4.88;4.05;;;33.80;1.00;;;;;;4934655;29;20199;-60
2023/05/05 10:00:03;;;;;;;6.35;5.03;;;34.80;1.00;;;;;;4951856;28;20275;-59
2023/05/05 10:02:32;;;;;;;4.97;4.40;;;31.40;1.00;;;;;;4947127;28;20784;-59
2023/05/05 10:05:14;;;;;;;4.65;4.22;;;32.30;1.00;;;;;;4950243;29;20546;-59
2023/05/05 10:07:46;;;;;;;5.78;5.28;;;33.90;1.00;;;;;;4946324;29;20206;-59
2023/05/05 10:10:15;;;;;;;6.05;4.88;;;34.00;1.00;;;;;;4947745;29;20572;-60
2023/05/05 10:12:48;;;;;;;7.55;6.80;;;34.80;1.00;;;;;;4952510;28;20191;-59
2023/05/05 10:15:16;;;;;;;9.82;7.20;;;33.80;1.00;;;;;;4947035;28;20193;-59
2023/05/05 10:17:47;;;;;;;9.82;7.22;;;31.90;1.00;;;;;;4942551;28;20198;-61
2023/05/05 10:20:33;;;;;;;8.25;7.45;;;30.60;1.00;;;;;;4951171;28;20725;-61
2023/05/05 10:23:04;;;;;;;11.25;7.45;;;29.30;1.00;;;;;;4952025;28;20713;-61
2023/05/05 10:25:37;;;;;;;7.78;6.90;;;28.30;1.00;;;;;;4934262;28;20198;-61
2023/05/05 10:28:08;;;;;;;6.72;5.78;;;31.20;1.00;;;;;;4956046;28;20207;-61
2023/05/05 10:30:42;;;;;;;6.32;5.53;;;32.20;1.00;;;;;;4951174;28;20251;-61
2023/05/05 10:33:16;;;;;;;9.27;7.68;;;33.80;1.00;;;;;;4955748;28;20381;-61
2023/05/05 10:36:01;;;;;;;10.30;7.15;;;31.20;1.00;;;;;;4949313;28;20540;-61
2023/05/05 10:38:29;;;;;;;9.73;7.03;;;29.50;1.00;;;;;;4953890;28;20600;-61
2023/05/05 10:41:00;;;;;;;10.38;6.78;;;30.60;1.00;;;;;;4934852;29;20199;-61
2023/05/05 10:43:30;;;;;;;7.88;6.85;;;32.10;1.00;;;;;;4956516;28;20714;-59
2023/05/05 10:45:58;;;;;;;14.18;7.72;;;33.50;1.00;;;;;;4949830;28;20596;-60
2023/05/05 10:48:56;;;;;;;7.07;6.35;;;33.20;1.00;;;;;;4929472;28;20222;-60
2023/05/05 10:51:35;;;;;;;8.25;6.63;;;32.00;1.00;;;;;;4949818;28;20689;-60
2023/05/05 10:54:29;;;;;;;7.47;5.53;;;30.30;1.00;;;;;;4947158;28;20199;-60
2023/05/05 10:56:57;;;;;;;9.02;5.00;;;31.30;1.00;;;;;;4950058;28;20556;-61
2023/05/05 10:59:36;;;;;;;9.05;5.85;;;32.80;1.00;;;;;;4958776;28;20218;-61
2023/05/05 11:02:24;;;;;;;7.43;5.47;;;32.60;1.00;;;;;;4950733;28;20312;-61
2023/05/05 11:05:13;;;;;;;6.00;5.32;;;33.40;1.00;;;;;;4949147;29;20219;-60
2023/05/05 11:07:45;;;;;;;6.40;5.47;;;34.50;1.00;;;;;;4947725;29;20652;-61
2023/05/05 11:10:14;;;;;;;9.18;6.15;;;34.30;1.00;;;;;;4932106;28;20659;-61
2023/05/05 11:13:01;;;;;;;7.88;5.50;;;31.80;1.00;;;;;;4915821;29;20203;-61
2023/05/05 11:15:28;;;;;;;6.53;5.55;;;29.60;1.00;;;;;;4935378;29;20195;-61
2023/05/05 11:18:02;;;;;;;7.80;5.68;;;29.20;1.00;;;;;;4927804;29;20212;-61
2023/05/05 11:20:38;;;;;;;8.82;6.15;;;29.10;1.00;;;;;;4941814;29;20230;-61
2023/05/05 11:23:06;;;;;;;9.50;5.40;;;28.50;1.00;;;;;;4949418;29;20227;-61
2023/05/05 11:25:36;;;;;;;7.15;6.18;;;27.90;1.00;;;;;;4945022;29;20203;-62
2023/05/05 11:28:12;;;;;;;11.15;6.10;;;27.00;1.00;;;;;;4942006;29;20310;-63
2023/05/05 11:30:54;;;;;;;10.38;5.55;;;27.70;1.00;;;;;;4945223;28;20202;-63
2023/05/05 11:33:27;;;;;;;6.65;5.35;;;28.30;1.00;;;;;;4955248;28;20265;-64
2023/05/05 11:36:02;;;;;;;7.80;4.90;;;27.20;1.00;;;;;;4930380;29;20198;-66
2023/05/05 11:38:35;;;;;;;4.82;4.03;;;27.30;1.00;;;;;;4949236;28;20317;-66
2023/05/05 11:41:13;;;;;;;5.32;4.68;;;27.60;1.00;;;;;;4949648;28;20198;-66
2023/05/05 11:43:41;;;;;;;6.93;4.18;;;27.20;1.00;;;;;;4945419;28;20203;-68
2023/05/05 11:46:15;;;;;;;5.55;4.50;;;27.20;1.00;;;;;;4955940;28;20710;-68
2023/05/05 11:48:47;;;;;;;6.13;4.32;;;27.30;1.00;;;;;;4924772;29;20679;-66
2023/05/05 11:51:15;;;;;;;7.82;4.20;;;27.40;1.00;;;;;;4931156;29;20254;-66
2023/05/05 11:53:43;;;;;;;5.80;4.10;;;27.10;1.00;;;;;;4945292;28;20279;-68
2023/05/05 11:56:13;;;;;;;4.72;4.20;;;26.60;1.00;;;;;;4940988;28;20293;-66
2023/05/05 11:58:40;;;;;;;6.22;4.07;;;26.30;1.00;;;;;;4945364;28;20667;-67
2023/05/05 12:01:08;;;;;;;4.35;3.95;;;26.10;1.00;;;;;;4940792;28;20289;-66
2023/05/05 12:03:39;;;;;;;4.50;3.38;;;25.90;1.00;;;;;;4944751;28;20647;-67
2023/05/05 12:06:07;;;;;;;4.82;3.53;;;25.70;1.00;;;;;;4944116;28;20596;-67
2023/05/05 12:08:35;;;;;;;3.72;2.92;;;25.60;1.00;;;;;;4943634;28;20231;-66
2023/05/05 12:11:11;;;;;;;4.60;3.15;;;25.40;1.00;;;;;;4944763;28;20282;-66
2023/05/05 12:13:38;;;;;;;4.95;2.90;;;25.30;1.00;;;;;;4936661;28;20663;-68
2023/05/05 12:16:08;;;;;;;4.50;2.70;;;25.40;1.00;;;;;;4944586;28;20203;-67
2023/05/05 12:18:36;;;;;;;4.07;2.95;;;25.50;1.00;;;;;;4951471;28;20281;-66
2023/05/05 12:25:04;;;;;;;3.65;3.10;;;25.40;1.00;;;;;;4938882;29;20186;-65
2023/05/05 12:27:31;;;;;;;4.93;3.58;;;25.40;1.00;;;;;;4926326;29;20795;-65
2023/05/05 12:30:11;;;;;;;4.57;3.13;;;25.30;1.00;;;;;;4948741;29;20266;-68
2023/05/05 12:32:38;;;;;;;4.32;3.55;;;24.90;1.00;;;;;;4947641;29;20283;-66
2023/05/05 12:35:06;;;;;;;4.18;3.10;;;24.70;1.00;;;;;;4948215;29;20278;-66
2023/05/05 12:37:34;;;;;;;3.47;3.08;;;24.60;1.00;;;;;;4929894;29;20614;-68
2023/05/05 12:40:02;;;;;;;5.15;3.45;;;24.40;1.00;;;;;;4931341;29;20199;-67
2023/05/05 12:42:29;;;;;;;4.70;3.53;;;24.50;1.00;;;;;;4931721;29;20669;-67
2023/05/05 12:44:56;;;;;;;4.22;3.50;;;24.30;1.00;;;;;;4947373;29;20203;-67
2023/05/05 12:47:31;;;;;;;5.72;3.70;;;24.00;1.00;;;;;;4947684;29;20225;-66
2023/05/05 12:49:59;;;;;;;5.05;3.67;;;24.00;1.00;;;;;;4946759;29;20233;-66
2023/05/05 12:52:41;;;;;;;3.25;2.88;;;24.10;1.00;;;;;;4940684;29;20191;-67
2023/05/05 12:55:10;;;;;;;4.45;3.05;;;24.00;1.00;;;;;;4912127;29;20199;-66
2023/05/05 12:57:38;;;;;;;5.13;3.10;;;23.70;1.00;;;;;;4948585;29;20203;-66
2023/05/05 13:00:16;;;;;;;6.35;3.17;;;23.50;1.00;;;;;;4943909;28;20218;-66
2023/05/05 13:02:43;;;;;;;5.80;3.45;;;23.50;1.00;;;;;;4944345;28;20770;-65
2023/05/05 13:05:11;;;;;;;6.80;3.47;;;23.30;1.00;;;;;;4944239;28;20670;-67
2023/05/05 13:07:50;;;;;;;4.60;3.38;;;23.40;1.00;;;;;;4946855;29;20206;-65
2023/05/05 13:10:17;;;;;;;6.82;3.28;;;23.40;1.00;;;;;;4938721;29;20203;-65
2023/05/05 13:12:44;;;;;;;7.00;3.03;;;23.00;1.00;;;;;;4939430;29;20191;-65